Time;durP1;ratioP1;P1;durP2;ratioP2;P2;SDS_P1;SDS_P2;PMS_P1;PMS_P2;Temp;Humidity;BMP_temperature;BMP_pressure;BME280_temperature;BME280_humidity;BME280_pressure;Samples;Min_cycle;Max_cycle;Signal;HPM_P1;HPM_P2
2023/10/20 00:01:28;;;;;;;62.85;41.53;;;;;;;;;;5009188;28;20034;-59
2023/10/20 00:03:53;;;;;;;62.80;39.70;;;;;;;;;;5011786;28;20080;-60
2023/10/20 00:06:19;;;;;;;67.70;41.47;;;;;;;;;;5013186;28;20482;-59
2023/10/20 00:08:45;;;;;;;65.55;39.90;;;;;;;;;;5014726;28;20029;-59
2023/10/20 00:11:10;;;;;;;63.97;41.17;;;;;;;;;;5013039;28;20041;-59
2023/10/20 00:13:35;;;;;;;70.07;41.33;;;;;;;;;;5014974;28;20021;-60
2023/10/20 00:16:01;;;;;;;75.00;40.22;;;;;;;;;;5012566;28;20406;-59
2023/10/20 00:18:26;;;;;;;67.90;40.37;;;;;;;;;;5014537;28;20076;-59
2023/10/20 00:20:51;;;;;;;65.07;40.57;;;;;;;;;;5012736;28;20483;-59
2023/10/20 00:23:16;;;;;;;72.57;46.30;;;;;;;;;;5012842;28;20018;-59
2023/10/20 00:25:42;;;;;;;77.87;41.47;;;;;;;;;;5012833;28;20452;-59
2023/10/20 00:28:08;;;;;;;69.75;43.28;;;;;;;;;;5014086;28;20060;-59
2023/10/20 00:30:34;;;;;;;66.88;42.90;;;;;;;;;;5012931;28;20046;-59
2023/10/20 00:33:01;;;;;;;78.85;43.97;;;;;;;;;;5014081;28;20448;-59
2023/10/20 00:35:26;;;;;;;64.10;40.30;;;;;;;;;;5012710;28;20046;-59
2023/10/20 00:37:51;;;;;;;75.70;44.33;;;;;;;;;;5013730;28;20072;-60
2023/10/20 00:40:16;;;;;;;73.70;41.72;;;;;;;;;;5012971;28;20453;-60
2023/10/20 00:42:42;;;;;;;80.57;44.57;;;;;;;;;;5014373;28;20014;-59
2023/10/20 00:45:08;;;;;;;76.35;44.05;;;;;;;;;;5011976;28;20037;-59
2023/10/20 00:47:35;;;;;;;82.47;48.65;;;;;;;;;;5013831;28;20022;-60
2023/10/20 00:50:01;;;;;;;78.45;45.78;;;;;;;;;;5012546;28;20164;-59
2023/10/20 00:52:28;;;;;;;72.28;45.85;;;;;;;;;;5013697;28;20120;-60
2023/10/20 00:54:54;;;;;;;77.43;43.77;;;;;;;;;;5012362;28;25170;-60
2023/10/20 00:57:19;;;;;;;78.70;46.70;;;;;;;;;;5013988;28;20504;-59
2023/10/20 00:59:44;;;;;;;86.73;46.63;;;;;;;;;;5013279;28;21001;-60
2023/10/20 01:02:09;;;;;;;76.70;43.60;;;;;;;;;;5033285;28;20017;-60
2023/10/20 01:04:35;;;;;;;83.38;44.25;;;;;;;;;;5032183;28;20519;-58
2023/10/20 01:07:00;;;;;;;83.13;46.60;;;;;;;;;;5032917;28;20017;-60
2023/10/20 01:09:28;;;;;;;87.07;42.97;;;;;;;;;;5033556;28;20049;-60
2023/10/20 01:11:54;;;;;;;83.90;43.38;;;;;;;;;;5031728;28;20124;-60
2023/10/20 01:14:19;;;;;;;74.88;43.22;;;;;;;;;;5033124;28;20101;-60
2023/10/20 01:16:44;;;;;;;84.70;44.75;;;;;;;;;;5030515;28;20392;-60
2023/10/20 01:19:10;;;;;;;73.67;42.23;;;;;;;;;;5032923;28;20507;-59
2023/10/20 01:21:35;;;;;;;93.57;48.60;;;;;;;;;;5031434;28;21017;-60
2023/10/20 01:24:02;;;;;;;82.30;45.75;;;;;;;;;;5033178;28;20087;-60
2023/10/20 01:26:27;;;;;;;87.95;45.72;;;;;;;;;;5030332;28;20462;-60
2023/10/20 01:28:52;;;;;;;74.72;42.97;;;;;;;;;;5032358;28;20022;-60
2023/10/20 01:31:17;;;;;;;83.40;43.87;;;;;;;;;;5031800;28;20100;-60
2023/10/20 01:33:42;;;;;;;80.78;47.42;;;;;;;;;;5032728;28;20080;-60
2023/10/20 01:36:07;;;;;;;77.53;42.60;;;;;;;;;;5030762;28;20046;-60
2023/10/20 01:38:33;;;;;;;79.37;42.40;;;;;;;;;;5033169;28;20371;-59
2023/10/20 01:40:58;;;;;;;87.05;44.50;;;;;;;;;;5031302;28;20978;-59
2023/10/20 01:43:23;;;;;;;82.68;41.72;;;;;;;;;;5032603;28;20018;-59
2023/10/20 01:45:48;;;;;;;83.87;42.50;;;;;;;;;;5031053;28;20095;-59
2023/10/20 01:48:13;;;;;;;89.13;47.20;;;;;;;;;;5032061;28;20580;-59
2023/10/20 01:50:38;;;;;;;92.47;47.22;;;;;;;;;;5031319;28;20463;-59
2023/10/20 01:53:04;;;;;;;84.13;46.72;;;;;;;;;;5032322;28;20402;-59
2023/10/20 01:55:29;;;;;;;83.35;43.05;;;;;;;;;;5031361;28;20029;-59
2023/10/20 01:57:54;;;;;;;76.13;40.80;;;;;;;;;;5032419;28;20380;-59
2023/10/20 02:00:19;;;;;;;82.32;42.53;;;;;;;;;;5030821;28;20995;-59
2023/10/20 02:02:44;;;;;;;82.77;45.03;;;;;;;;;;5032502;28;20026;-59
2023/10/20 02:05:10;;;;;;;90.87;46.93;;;;;;;;;;5030815;28;20522;-59
2023/10/20 02:07:35;;;;;;;84.83;47.67;;;;;;;;;;5032126;28;20535;-59
2023/10/20 02:10:00;;;;;;;87.90;44.10;;;;;;;;;;5030360;28;20045;-59
2023/10/20 02:12:27;;;;;;;79.00;41.00;;;;;;;;;;5032425;28;20431;-59
2023/10/20 02:14:52;;;;;;;73.85;41.97;;;;;;;;;;5030302;28;20024;-59
2023/10/20 02:17:17;;;;;;;81.30;43.90;;;;;;;;;;5032157;28;20022;-59
2023/10/20 02:19:43;;;;;;;85.38;43.92;;;;;;;;;;5030163;28;20067;-59
2023/10/20 02:22:08;;;;;;;91.77;47.80;;;;;;;;;;5031500;28;20071;-59
2023/10/20 02:24:33;;;;;;;89.18;47.20;;;;;;;;;;5032186;28;20435;-58
2023/10/20 02:26:58;;;;;;;90.57;44.33;;;;;;;;;;5030222;28;20120;-58
2023/10/20 02:29:23;;;;;;;86.78;44.58;;;;;;;;;;5031516;28;20380;-58
2023/10/20 02:31:48;;;;;;;94.83;45.90;;;;;;;;;;5030398;28;20053;-58
2023/10/20 02:34:14;;;;;;;94.80;45.63;;;;;;;;;;5030094;28;20131;-58
2023/10/20 02:36:39;;;;;;;90.35;44.70;;;;;;;;;;5029971;28;20033;-58
2023/10/20 02:39:04;;;;;;;89.78;48.58;;;;;;;;;;5030198;28;20022;-58
2023/10/20 02:41:29;;;;;;;85.53;46.70;;;;;;;;;;5030329;28;20037;-58
2023/10/20 02:43:55;;;;;;;88.93;46.00;;;;;;;;;;5030569;28;20451;-58
2023/10/20 02:46:20;;;;;;;92.13;43.03;;;;;;;;;;5030052;28;20048;-58
2023/10/20 02:48:45;;;;;;;93.00;45.53;;;;;;;;;;5031525;28;20040;-58
2023/10/20 02:51:13;;;;;;;99.75;51.50;;;;;;;;;;5029651;28;20120;-58
2023/10/20 02:53:42;;;;;;;;;;;;;;;;;;5032146;28;20465;-59
2023/10/20 02:56:13;;;;;;;93.88;44.58;;;;;;;;;;5030015;28;20447;-58
2023/10/20 02:58:39;;;;;;;93.20;46.88;;;;;;;;;;5030656;28;20025;-58
2023/10/20 03:01:05;;;;;;;86.35;45.30;;;;;;;;;;5029789;28;20036;-59
2023/10/20 03:03:30;;;;;;;93.85;45.95;;;;;;;;;;5031594;28;20017;-58
2023/10/20 03:05:55;;;;;;;83.83;44.73;;;;;;;;;;5029490;28;20564;-58
2023/10/20 03:08:20;;;;;;;86.75;44.42;;;;;;;;;;5030911;28;20021;-58
2023/10/20 03:10:45;;;;;;;89.73;46.83;;;;;;;;;;5029947;28;20037;-58
2023/10/20 03:13:11;;;;;;;86.23;45.07;;;;;;;;;;5030259;28;20070;-58
2023/10/20 03:15:36;;;;;;;79.95;43.63;;;;;;;;;;5029838;28;20041;-58
2023/10/20 03:18:02;;;;;;;88.65;43.42;;;;;;;;;;5030118;28;20473;-59
2023/10/20 03:20:32;;;;;;;81.35;43.67;;;;;;;;;;5029591;28;20067;-58
2023/10/20 03:22:58;;;;;;;100.70;47.42;;;;;;;;;;5030853;28;20097;-59
2023/10/20 03:25:23;;;;;;;74.53;39.17;;;;;;;;;;5029922;28;20671;-58
2023/10/20 03:27:48;;;;;;;77.80;41.50;;;;;;;;;;5030094;28;20017;-58
2023/10/20 03:30:16;;;;;;;79.47;44.15;;;;;;;;;;5010048;28;20038;-58
2023/10/20 03:32:42;;;;;;;89.38;36.92;;;;;;;;;;5030162;28;20022;-58
2023/10/20 03:35:07;;;;;;;71.20;39.25;;;;;;;;;;5028862;28;20056;-58
2023/10/20 03:37:34;;;;;;;71.53;39.15;;;;;;;;;;5029331;28;20488;-58
2023/10/20 03:39:59;;;;;;;72.30;40.63;;;;;;;;;;5028669;28;20408;-58
2023/10/20 03:42:25;;;;;;;72.07;40.73;;;;;;;;;;5030572;28;20017;-58
2023/10/20 03:44:50;;;;;;;65.40;36.58;;;;;;;;;;5029317;28;20017;-58
2023/10/20 03:47:17;;;;;;;68.43;37.43;;;;;;;;;;5030242;28;20017;-58
2023/10/20 03:49:42;;;;;;;71.22;40.65;;;;;;;;;;5028951;28;20455;-58
2023/10/20 03:52:11;;;;;;;66.38;34.35;;;;;;;;;;5030414;28;20096;-58
2023/10/20 03:54:36;;;;;;;70.18;36.67;;;;;;;;;;5029095;28;20071;-58
2023/10/20 03:57:03;;;;;;;70.77;40.50;;;;;;;;;;5029955;28;20021;-58
2023/10/20 03:59:28;;;;;;;75.88;42.78;;;;;;;;;;5028923;28;20851;-58
2023/10/20 04:01:53;;;;;;;72.60;38.80;;;;;;;;;;5029101;28;20030;-58
2023/10/20 04:04:19;;;;;;;71.53;39.23;;;;;;;;;;5030597;28;20020;-58
2023/10/20 04:06:45;;;;;;;76.87;38.97;;;;;;;;;;5029014;28;20555;-58
2023/10/20 04:09:11;;;;;;;72.07;38.42;;;;;;;;;;5030108;28;20440;-58
2023/10/20 04:11:37;;;;;;;70.50;37.72;;;;;;;;;;5028807;28;20041;-60
2023/10/20 04:14:05;;;;;;;69.47;39.10;;;;;;;;;;5030133;28;20026;-57
2023/10/20 04:16:31;;;;;;;59.35;37.45;;;;;;;;;;5027026;28;20124;-57
2023/10/20 04:18:58;;;;;;;60.70;37.72;;;;;;;;;;5029498;28;20104;-57
2023/10/20 04:21:25;;;;;;;74.43;37.92;;;;;;;;;;5029004;28;20172;-57
2023/10/20 04:23:50;;;;;;;69.10;39.92;;;;;;;;;;5030118;28;20082;-57
2023/10/20 04:26:20;;;;;;;67.28;37.10;;;;;;;;;;5024608;28;20125;-57
2023/10/20 04:28:46;;;;;;;71.20;39.03;;;;;;;;;;5030217;28;20103;-57
2023/10/20 04:45:46;;;;;;;74.45;37.63;;;;;;;;;;5007135;28;20121;-57
2023/10/20 04:52:58;;;;;;;68.50;33.95;;;;;;;;;;5011411;28;20030;-57
2023/10/20 05:00:36;;;;;;;65.13;36.38;;;;;;;;;;5010976;28;20125;-57
2023/10/20 05:05:39;;;;;;;83.27;41.67;;;;;;;;;;5011946;28;20410;-57
2023/10/20 05:08:05;;;;;;;72.82;41.42;;;;;;;;;;5011759;28;20400;-57
2023/10/20 05:10:31;;;;;;;77.43;38.20;;;;;;;;;;5010839;28;20108;-57
2023/10/20 05:12:56;;;;;;;66.57;35.55;;;;;;;;;;5009886;28;20671;-57
2023/10/20 05:15:21;;;;;;;72.07;39.57;;;;;;;;;;5009512;28;20030;-57
2023/10/20 05:17:46;;;;;;;67.77;35.90;;;;;;;;;;5013128;28;20400;-57
2023/10/20 05:20:15;;;;;;;74.47;37.93;;;;;;;;;;5008414;28;20453;-57
2023/10/20 05:22:40;;;;;;;72.13;39.08;;;;;;;;;;5001594;28;21073;-57
2023/10/20 05:25:06;;;;;;;70.90;38.60;;;;;;;;;;5001578;28;20034;-57
2023/10/20 05:27:31;;;;;;;65.63;36.53;;;;;;;;;;5012185;28;20026;-57
2023/10/20 05:29:56;;;;;;;70.75;36.92;;;;;;;;;;5010618;28;20034;-57
2023/10/20 05:32:22;;;;;;;68.35;36.20;;;;;;;;;;5012276;28;20018;-58
2023/10/20 05:34:47;;;;;;;65.07;36.00;;;;;;;;;;5009930;28;20624;-57
2023/10/20 05:37:12;;;;;;;71.57;36.00;;;;;;;;;;5011296;28;20030;-57
2023/10/20 05:39:38;;;;;;;65.27;31.83;;;;;;;;;;5012758;28;20017;-57
2023/10/20 05:42:04;;;;;;;69.25;35.28;;;;;;;;;;5010851;28;20480;-57
2023/10/20 05:44:37;;;;;;;77.53;38.38;;;;;;;;;;5011385;28;20033;-57
2023/10/20 05:47:04;;;;;;;60.33;33.83;;;;;;;;;;5010013;28;20052;-57
2023/10/20 05:49:29;;;;;;;65.90;33.22;;;;;;;;;;5012129;28;20013;-57
2023/10/20 05:51:54;;;;;;;62.38;33.60;;;;;;;;;;5009483;28;20128;-57
2023/10/20 05:54:20;;;;;;;66.03;34.80;;;;;;;;;;5012267;28;20022;-57
2023/10/20 05:56:45;;;;;;;54.80;31.70;;;;;;;;;;5010169;28;20042;-57
2023/10/20 05:59:10;;;;;;;59.27;34.30;;;;;;;;;;5010690;28;20477;-57
2023/10/20 06:01:35;;;;;;;62.40;33.00;;;;;;;;;;5008357;28;20041;-57
2023/10/20 06:04:01;;;;;;;66.57;32.37;;;;;;;;;;5010999;28;20543;-57
2023/10/20 06:06:26;;;;;;;70.50;35.88;;;;;;;;;;5005084;28;20465;-57
2023/10/20 06:08:51;;;;;;;56.43;31.03;;;;;;;;;;5011351;28;20018;-57
2023/10/20 06:11:16;;;;;;;54.03;30.23;;;;;;;;;;5010360;28;20044;-58
2023/10/20 06:13:41;;;;;;;62.70;31.70;;;;;;;;;;5010939;28;20092;-57
2023/10/20 06:16:10;;;;;;;48.70;29.80;;;;;;;;;;5009948;28;20054;-57
2023/10/20 06:18:36;;;;;;;49.28;27.75;;;;;;;;;;5011113;28;20022;-58
2023/10/20 06:21:01;;;;;;;55.65;31.25;;;;;;;;;;5008820;28;20052;-58
2023/10/20 06:23:26;;;;;;;45.33;26.80;;;;;;;;;;5011758;28;20064;-57
2023/10/20 06:25:51;;;;;;;53.28;29.83;;;;;;;;;;5019278;28;20116;-57
2023/10/20 06:28:17;;;;;;;50.20;29.85;;;;;;;;;;5015610;28;20037;-57
2023/10/20 06:30:46;;;;;;;47.37;29.00;;;;;;;;;;4999137;28;20087;-57
2023/10/20 06:33:16;;;;;;;49.05;30.08;;;;;;;;;;5011141;28;20413;-57
2023/10/20 06:35:51;;;;;;;42.63;27.92;;;;;;;;;;5011334;28;20042;-58
2023/10/20 06:38:19;;;;;;;38.88;26.08;;;;;;;;;;5011260;28;20079;-58
2023/10/20 06:40:44;;;;;;;41.45;24.05;;;;;;;;;;5009979;28;20041;-57
2023/10/20 06:43:09;;;;;;;38.45;24.65;;;;;;;;;;5009666;28;20021;-57
2023/10/20 06:45:35;;;;;;;40.97;26.17;;;;;;;;;;5009766;28;20042;-57
2023/10/20 06:48:00;;;;;;;34.03;19.83;;;;;;;;;;5010450;28;20022;-58
2023/10/20 06:50:25;;;;;;;26.52;18.75;;;;;;;;;;5009548;28;20471;-58
2023/10/20 06:52:53;;;;;;;31.70;20.70;;;;;;;;;;5010337;28;20025;-58
2023/10/20 06:55:18;;;;;;;23.52;18.15;;;;;;;;;;5009892;28;20034;-58
2023/10/20 06:57:43;;;;;;;25.60;16.30;;;;;;;;;;5011372;28;20049;-58
2023/10/20 07:00:16;;;;;;;26.30;19.92;;;;;;;;;;5008746;28;20029;-58
2023/10/20 07:02:42;;;;;;;23.15;17.83;;;;;;;;;;5010524;28;20029;-58
2023/10/20 07:05:07;;;;;;;25.13;15.68;;;;;;;;;;5007684;28;20091;-58
2023/10/20 07:07:32;;;;;;;27.50;17.67;;;;;;;;;;5009435;28;20026;-58
2023/10/20 07:09:57;;;;;;;18.92;14.15;;;;;;;;;;5011519;28;20456;-56
2023/10/20 07:12:22;;;;;;;20.47;14.20;;;;;;;;;;5022303;28;20018;-56
2023/10/20 07:14:48;;;;;;;20.93;16.33;;;;;;;;;;5009023;28;20021;-57
2023/10/20 07:17:13;;;;;;;15.87;13.37;;;;;;;;;;5030072;28;20104;-56
2023/10/20 07:19:38;;;;;;;14.95;12.63;;;;;;;;;;5028735;28;20448;-55
2023/10/20 07:22:03;;;;;;;15.55;13.40;;;;;;;;;;5009517;28;20010;-56
2023/10/20 07:24:29;;;;;;;14.43;11.57;;;;;;;;;;5020044;28;20041;-56
2023/10/20 07:26:54;;;;;;;16.73;12.02;;;;;;;;;;5020110;28;20497;-56
2023/10/20 07:29:20;;;;;;;15.82;12.32;;;;;;;;;;5010237;28;20041;-56
2023/10/20 07:31:47;;;;;;;13.95;11.13;;;;;;;;;;5026351;28;20037;-56
2023/10/20 07:34:12;;;;;;;13.80;10.40;;;;;;;;;;5029962;28;20045;-56
2023/10/20 07:36:37;;;;;;;13.73;10.18;;;;;;;;;;5013231;28;20038;-56
2023/10/20 07:39:03;;;;;;;17.17;10.02;;;;;;;;;;5010018;28;20096;-56
2023/10/20 07:41:28;;;;;;;10.43;9.02;;;;;;;;;;5024151;28;20034;-56
2023/10/20 07:43:53;;;;;;;9.43;8.18;;;;;;;;;;5028604;28;20430;-56
2023/10/20 07:46:18;;;;;;;13.53;9.97;;;;;;;;;;5013827;28;20102;-56
2023/10/20 07:48:44;;;;;;;9.57;8.47;;;;;;;;;;5009791;28;20117;-56
2023/10/20 07:51:09;;;;;;;9.95;9.02;;;;;;;;;;5008925;28;20046;-56
2023/10/20 07:53:34;;;;;;;16.60;12.87;;;;;;;;;;5008435;28;20080;-55
2023/10/20 07:56:00;;;;;;;11.65;9.90;;;;;;;;;;5008054;28;20048;-55
2023/10/20 07:58:25;;;;;;;13.32;8.85;;;;;;;;;;5006609;28;20032;-56
2023/10/20 08:00:51;;;;;;;10.95;8.63;;;;;;;;;;5008102;28;20124;-55
2023/10/20 08:03:16;;;;;;;10.80;8.93;;;;;;;;;;5010052;28;20014;-56
2023/10/20 08:05:41;;;;;;;10.30;9.17;;;;;;;;;;5009093;28;20681;-56
2023/10/20 08:08:06;;;;;;;11.73;8.63;;;;;;;;;;5007298;28;20440;-55
2023/10/20 08:10:32;;;;;;;10.70;9.13;;;;;;;;;;5015134;28;20468;-55
2023/10/20 08:12:57;;;;;;;10.93;7.82;;;;;;;;;;5016118;28;20385;-55
2023/10/20 08:15:27;;;;;;;10.60;9.05;;;;;;;;;;5009653;28;20026;-55
2023/10/20 08:17:52;;;;;;;10.07;7.00;;;;;;;;;;5011560;28;20483;-56
2023/10/20 08:20:17;;;;;;;8.40;7.60;;;;;;;;;;5014590;28;20033;-58
2023/10/20 08:22:43;;;;;;;9.20;6.70;;;;;;;;;;5029475;28;20050;-55
2023/10/20 08:25:08;;;;;;;7.32;6.18;;;;;;;;;;5024675;28;20038;-56
2023/10/20 08:27:34;;;;;;;7.75;7.05;;;;;;;;;;5013643;28;20034;-56
2023/10/20 08:29:59;;;;;;;8.60;7.80;;;;;;;;;;5012371;28;20088;-55
2023/10/20 08:32:24;;;;;;;10.57;7.03;;;;;;;;;;5013748;28;20022;-55
2023/10/20 08:34:50;;;;;;;7.85;6.80;;;;;;;;;;5014049;28;20580;-56
2023/10/20 08:37:16;;;;;;;8.32;6.55;;;;;;;;;;5033682;28;20029;-55
2023/10/20 08:39:41;;;;;;;7.78;5.57;;;;;;;;;;5031709;28;20018;-55
2023/10/20 08:42:14;;;;;;;6.75;5.50;;;;;;;;;;5032703;28;20823;-55
2023/10/20 08:44:40;;;;;;;6.25;5.65;;;;;;;;;;5030700;28;20384;-55
2023/10/20 08:47:07;;;;;;;7.53;5.35;;;;;;;;;;5031348;28;20014;-55
2023/10/20 08:49:32;;;;;;;6.72;5.97;;;;;;;;;;5012753;28;20022;-55
2023/10/20 08:51:59;;;;;;;6.28;5.68;;;;;;;;;;5019475;28;20225;-55
2023/10/20 08:54:26;;;;;;;6.20;4.55;;;;;;;;;;5030844;28;20021;-57
2023/10/20 08:56:51;;;;;;;5.15;4.65;;;;;;;;;;5029518;28;20416;-55
2023/10/20 08:59:17;;;;;;;7.35;6.75;;;;;;;;;;5033708;28;20022;-55
2023/10/20 09:01:44;;;;;;;4.83;4.43;;;;;;;;;;5031169;28;20049;-55
2023/10/20 09:04:19;;;;;;;10.13;5.25;;;;;;;;;;5032681;28;20491;-55
2023/10/20 09:06:44;;;;;;;10.02;7.55;;;;;;;;;;5031108;28;20559;-55
2023/10/20 09:09:10;;;;;;;10.07;5.27;;;;;;;;;;5032788;28;20029;-55
2023/10/20 09:11:35;;;;;;;7.68;5.25;;;;;;;;;;5031366;28;20037;-55
2023/10/20 09:14:02;;;;;;;5.97;5.43;;;;;;;;;;5032676;28;20354;-54
2023/10/20 09:16:27;;;;;;;7.82;5.68;;;;;;;;;;5029342;28;20065;-55
2023/10/20 09:18:53;;;;;;;11.17;7.60;;;;;;;;;;5031944;28;20056;-55
2023/10/20 09:21:19;;;;;;;7.00;6.38;;;;;;;;;;5031186;28;20560;-55
2023/10/20 09:24:03;;;;;;;7.85;6.38;;;;;;;;;;5032340;28;20021;-55
2023/10/20 09:26:30;;;;;;;6.88;6.18;;;;;;;;;;5030695;28;20042;-55
2023/10/20 09:28:56;;;;;;;5.68;5.18;;;;;;;;;;5032191;28;20052;-55
2023/10/20 09:31:22;;;;;;;6.22;5.47;;;;;;;;;;5028638;28;20053;-55
2023/10/20 09:33:47;;;;;;;12.73;7.18;;;;;;;;;;5031246;28;20099;-55
2023/10/20 09:36:12;;;;;;;5.20;4.80;;;;;;;;;;5029439;28;20505;-55
2023/10/20 09:38:38;;;;;;;6.78;5.55;;;;;;;;;;5031811;28;20111;-55
2023/10/20 09:41:06;;;;;;;6.18;5.57;;;;;;;;;;5030638;28;20036;-55
2023/10/20 09:43:35;;;;;;;9.00;5.43;;;;;;;;;;5032615;28;20495;-55
2023/10/20 09:46:12;;;;;;;6.45;5.80;;;;;;;;;;5030063;28;20128;-55
2023/10/20 09:48:39;;;;;;;5.20;4.70;;;;;;;;;;5032542;28;20025;-55
2023/10/20 09:51:04;;;;;;;8.05;5.38;;;;;;;;;;5030933;28;20030;-55
2023/10/20 09:53:30;;;;;;;8.43;5.88;;;;;;;;;;5032158;28;20024;-55
2023/10/20 09:55:55;;;;;;;6.03;5.47;;;;;;;;;;5030266;28;20507;-55
2023/10/20 09:58:24;;;;;;;7.20;4.90;;;;;;;;;;5032221;28;20056;-55
2023/10/20 10:00:50;;;;;;;5.15;4.65;;;;;;;;;;5027259;28;20374;-55
2023/10/20 10:03:26;;;;;;;5.25;4.78;;;;;;;;;;5030608;28;20498;-55
2023/10/20 10:05:51;;;;;;;4.53;4.13;;;;;;;;;;5030575;28;20052;-55
2023/10/20 10:08:19;;;;;;;4.32;3.92;;;;;;;;;;5030987;28;20096;-55
2023/10/20 10:10:45;;;;;;;5.03;4.53;;;;;;;;;;5030875;28;20400;-54
2023/10/20 10:13:10;;;;;;;4.30;3.90;;;;;;;;;;5031327;28;20028;-55
2023/10/20 10:15:38;;;;;;;6.00;4.55;;;;;;;;;;5027651;28;20039;-56
2023/10/20 10:18:07;;;;;;;5.05;4.65;;;;;;;;;;5031162;28;20026;-55
2023/10/20 10:20:32;;;;;;;;;;;;;;;;;;5031095;28;20025;-56
2023/10/20 10:23:08;;;;;;;5.50;3.88;;;;;;;;;;5030079;28;19905;-55
2023/10/20 10:25:34;;;;;;;4.53;4.13;;;;;;;;;;5016072;28;20370;-55
2023/10/20 10:28:20;;;;;;;4.50;4.10;;;;;;;;;;5030702;28;20028;-55
2023/10/20 10:30:51;;;;;;;7.03;4.78;;;;;;;;;;5030003;28;20381;-55
2023/10/20 10:33:20;;;;;;;4.50;4.20;;;;;;;;;;5031977;28;20472;-55
2023/10/20 10:35:46;;;;;;;4.65;4.25;;;;;;;;;;5030069;28;20099;-55
2023/10/20 10:38:21;;;;;;;4.32;3.92;;;;;;;;;;5030192;28;20025;-55
2023/10/20 10:40:46;;;;;;;5.30;4.85;;;;;;;;;;5029801;28;20060;-55
2023/10/20 10:43:16;;;;;;;5.07;3.67;;;;;;;;;;5030595;28;20017;-55
2023/10/20 10:45:42;;;;;;;4.15;2.70;;;;;;;;;;5029036;28;20037;-55
2023/10/20 10:48:07;;;;;;;4.32;3.92;;;;;;;;;;5030875;28;20092;-56
2023/10/20 10:50:35;;;;;;;3.73;3.43;;;;;;;;;;5030022;28;20060;-55
2023/10/20 10:53:00;;;;;;;3.47;3.20;;;;;;;;;;5030454;28;20522;-55
2023/10/20 10:55:26;;;;;;;3.35;3.00;;;;;;;;;;5029885;28;20545;-55
2023/10/20 10:57:51;;;;;;;3.13;2.83;;;;;;;;;;5029809;28;20063;-55
2023/10/20 11:00:16;;;;;;;3.43;3.10;;;;;;;;;;5029498;28;20120;-55
2023/10/20 11:02:42;;;;;;;2.90;2.70;;;;;;;;;;5029753;28;20396;-55
2023/10/20 11:05:08;;;;;;;3.15;2.85;;;;;;;;;;5009587;28;20117;-56
2023/10/20 11:07:34;;;;;;;2.87;2.67;;;;;;;;;;5012210;28;20101;-56
2023/10/20 11:10:00;;;;;;;3.38;3.08;;;;;;;;;;5029325;28;20487;-55
2023/10/20 11:12:25;;;;;;;3.13;2.60;;;;;;;;;;5030979;28;20018;-55
2023/10/20 11:14:50;;;;;;;4.87;2.93;;;;;;;;;;5029073;28;20107;-53
2023/10/20 11:17:15;;;;;;;2.42;2.33;;;;;;;;;;5031263;28;20491;-55
2023/10/20 11:19:41;;;;;;;4.70;2.33;;;;;;;;;;5029033;28;20067;-54
2023/10/20 11:22:13;;;;;;;3.35;3.05;;;;;;;;;;5030282;28;20767;-55
2023/10/20 11:24:39;;;;;;;5.20;4.25;;;;;;;;;;5029166;28;20436;-52
2023/10/20 11:27:11;;;;;;;3.70;2.33;;;;;;;;;;5030407;28;20021;-56
2023/10/20 11:29:37;;;;;;;2.17;2.08;;;;;;;;;;5030759;28;20013;-55
2023/10/20 11:32:06;;;;;;;2.70;2.55;;;;;;;;;;5029287;28;20040;-55
2023/10/20 11:34:31;;;;;;;3.38;3.08;;;;;;;;;;5030321;28;20056;-55
2023/10/20 11:36:57;;;;;;;7.60;2.72;;;;;;;;;;5027706;28;20480;-56
2023/10/20 11:39:24;;;;;;;2.47;2.38;;;;;;;;;;5029514;28;20068;-55
2023/10/20 11:41:50;;;;;;;2.00;1.90;;;;;;;;;;5028820;28;20099;-62
2023/10/20 11:44:15;;;;;;;2.55;2.33;;;;;;;;;;5028872;28;20461;-56
2023/10/20 11:46:43;;;;;;;2.42;2.33;;;;;;;;;;5028819;28;20103;-55
2023/10/20 11:49:08;;;;;;;2.63;2.42;;;;;;;;;;5030730;28;20068;-56
2023/10/20 11:51:33;;;;;;;2.75;2.13;;;;;;;;;;5029173;28;20285;-55
2023/10/20 11:53:58;;;;;;;2.10;2.00;;;;;;;;;;5030352;28;20029;-56
2023/10/20 11:56:25;;;;;;;1.90;1.80;;;;;;;;;;5028923;28;20461;-56
2023/10/20 11:58:50;;;;;;;1.77;1.67;;;;;;;;;;5029934;28;20032;-56
2023/10/20 12:01:15;;;;;;;2.40;2.30;;;;;;;;;;5029008;28;20029;-56
2023/10/20 12:03:40;;;;;;;2.53;2.15;;;;;;;;;;5030661;28;20377;-55
2023/10/20 12:06:06;;;;;;;2.20;2.10;;;;;;;;;;5028835;28;20033;-56
2023/10/20 12:08:32;;;;;;;2.95;2.10;;;;;;;;;;5030332;28;20021;-56
2023/10/20 12:10:57;;;;;;;2.67;2.47;;;;;;;;;;5028831;28;20045;-55
2023/10/20 12:13:23;;;;;;;2.42;2.22;;;;;;;;;;5030410;28;20553;-55
2023/10/20 12:15:48;;;;;;;1.75;1.65;;;;;;;;;;5029087;28;20038;-56
2023/10/20 12:18:14;;;;;;;2.05;1.95;;;;;;;;;;5030367;28;20021;-55
2023/10/20 12:20:39;;;;;;;2.47;2.30;;;;;;;;;;5008978;28;20057;-55
2023/10/20 12:23:05;;;;;;;1.83;1.73;;;;;;;;;;5010644;28;20018;-55
2023/10/20 12:25:31;;;;;;;3.67;1.92;;;;;;;;;;5009395;28;20056;-56
2023/10/20 12:27:56;;;;;;;2.03;1.92;;;;;;;;;;5018025;28;20548;-56
2023/10/20 12:30:21;;;;;;;2.60;2.40;;;;;;;;;;5028482;28;20044;-56
2023/10/20 12:32:46;;;;;;;2.00;1.90;;;;;;;;;;5030724;28;20428;-56
2023/10/20 12:35:12;;;;;;;2.50;2.30;;;;;;;;;;5027870;28;20513;-56
2023/10/20 12:37:37;;;;;;;2.15;2.05;;;;;;;;;;5029948;28;20866;-55
2023/10/20 12:40:03;;;;;;;2.33;2.08;;;;;;;;;;5028446;28;20190;-56
2023/10/20 12:42:28;;;;;;;2.40;2.25;;;;;;;;;;5030070;28;20024;-55
2023/10/20 12:44:53;;;;;;;2.43;2.23;;;;;;;;;;5028310;28;20010;-55
2023/10/20 12:47:19;;;;;;;2.50;2.30;;;;;;;;;;5029920;28;20476;-56
2023/10/20 12:49:45;;;;;;;2.60;2.40;;;;;;;;;;5027652;28;20034;-56
2023/10/20 12:52:12;;;;;;;2.13;1.95;;;;;;;;;;5014863;28;20075;-56
2023/10/20 12:54:37;;;;;;;3.42;3.22;;;;;;;;;;5030235;28;20021;-56
2023/10/20 12:57:03;;;;;;;2.60;2.40;;;;;;;;;;5026295;28;20030;-55
2023/10/20 12:59:28;;;;;;;2.47;2.33;;;;;;;;;;5029000;28;20060;-55
2023/10/20 13:01:53;;;;;;;2.60;2.40;;;;;;;;;;5026304;28;20029;-58
2023/10/20 13:04:18;;;;;;;2.30;2.17;;;;;;;;;;5029633;28;20044;-55
2023/10/20 13:06:44;;;;;;;2.90;2.25;;;;;;;;;;5027287;28;20452;-55
2023/10/20 13:09:10;;;;;;;2.80;2.60;;;;;;;;;;5029370;28;20147;-54
2023/10/20 13:11:35;;;;;;;2.35;2.25;;;;;;;;;;5027786;28;20084;-54
2023/10/20 13:14:01;;;;;;;2.57;2.47;;;;;;;;;;5032179;28;20506;-55
2023/10/20 13:16:26;;;;;;;2.58;2.42;;;;;;;;;;5030818;28;20044;-55
2023/10/20 13:18:51;;;;;;;2.50;2.30;;;;;;;;;;5030713;28;20583;-54
2023/10/20 13:21:17;;;;;;;4.70;4.30;;;;;;;;;;5027164;28;20045;-55
2023/10/20 13:23:42;;;;;;;2.88;2.78;;;;;;;;;;5032397;28;20368;-55
2023/10/20 13:26:07;;;;;;;2.23;2.03;;;;;;;;;;5030572;28;20040;-55
2023/10/20 13:28:32;;;;;;;2.65;2.45;;;;;;;;;;5031740;28;20063;-55
2023/10/20 13:30:59;;;;;;;2.47;2.38;;;;;;;;;;5027222;28;20083;-55
2023/10/20 13:33:24;;;;;;;2.33;2.22;;;;;;;;;;5032091;28;20013;-53
2023/10/20 13:35:49;;;;;;;2.10;2.00;;;;;;;;;;5019053;28;20052;-55
2023/10/20 13:38:15;;;;;;;2.40;2.30;;;;;;;;;;5016977;28;20452;-55
2023/10/20 13:40:40;;;;;;;2.30;2.10;;;;;;;;;;5031457;28;20047;-55
2023/10/20 13:43:05;;;;;;;2.00;1.90;;;;;;;;;;5032071;28;20531;-55
2023/10/20 13:45:30;;;;;;;2.50;2.33;;;;;;;;;;5030644;28;20040;-54
2023/10/20 13:47:55;;;;;;;2.00;1.90;;;;;;;;;;5031327;28;20878;-55
2023/10/20 13:50:20;;;;;;;2.33;2.23;;;;;;;;;;5030411;28;20464;-55
2023/10/20 13:52:46;;;;;;;2.17;2.03;;;;;;;;;;5031833;28;20467;-55
2023/10/20 13:55:12;;;;;;;2.45;2.25;;;;;;;;;;5030412;28;20064;-55
2023/10/20 13:57:37;;;;;;;2.50;2.35;;;;;;;;;;5030815;28;20446;-55
2023/10/20 14:00:06;;;;;;;3.88;3.55;;;;;;;;;;5030548;28;20109;-55
2023/10/20 14:02:31;;;;;;;1.85;1.75;;;;;;;;;;5031824;28;20490;-55
2023/10/20 14:04:56;;;;;;;2.90;2.10;;;;;;;;;;5028554;28;20021;-55
2023/10/20 14:07:22;;;;;;;2.07;1.97;;;;;;;;;;5031678;28;20520;-54
2023/10/20 14:09:47;;;;;;;2.43;2.30;;;;;;;;;;5030507;28;20459;-55
2023/10/20 14:12:12;;;;;;;2.53;2.42;;;;;;;;;;5031546;28;20519;-55
2023/10/20 14:14:37;;;;;;;3.65;2.22;;;;;;;;;;5031366;28;20060;-55
2023/10/20 14:17:09;;;;;;;3.13;2.10;;;;;;;;;;5029399;28;20037;-55
2023/10/20 14:19:34;;;;;;;2.30;2.20;;;;;;;;;;5030191;28;20869;-55
2023/10/20 14:22:00;;;;;;;2.67;2.47;;;;;;;;;;5029743;28;20033;-55
2023/10/20 14:24:25;;;;;;;1.90;1.80;;;;;;;;;;5031844;28;20484;-55
2023/10/20 14:26:50;;;;;;;2.67;2.47;;;;;;;;;;5029075;28;20045;-55
2023/10/20 14:29:17;;;;;;;2.43;2.30;;;;;;;;;;5030988;28;20064;-55
2023/10/20 14:31:42;;;;;;;3.70;2.88;;;;;;;;;;5028543;28;20451;-54
2023/10/20 14:34:08;;;;;;;2.28;2.13;;;;;;;;;;5029507;28;20059;-55
2023/10/20 14:36:33;;;;;;;2.53;2.40;;;;;;;;;;5029387;28;20135;-55
2023/10/20 14:38:58;;;;;;;3.60;3.30;;;;;;;;;;5029386;28;20029;-55
2023/10/20 14:41:23;;;;;;;2.88;2.67;;;;;;;;;;5028371;28;20029;-55
2023/10/20 14:43:48;;;;;;;3.58;3.28;;;;;;;;;;5031800;28;20056;-55
2023/10/20 14:46:14;;;;;;;3.73;3.10;;;;;;;;;;5029898;28;20116;-54
2023/10/20 14:48:39;;;;;;;2.27;2.17;;;;;;;;;;5030172;28;20459;-55
2023/10/20 14:51:06;;;;;;;3.38;3.08;;;;;;;;;;5029195;28;21033;-54